createdAt,value
2018-04-10T00:00:18.856Z,98.10
2018-04-10T00:02:47.026Z,98.20
2018-04-10T00:05:15.164Z,98.20
2018-04-10T00:07:45.038Z,98.20
2018-04-10T00:10:13.196Z,98.20
2018-04-10T00:12:41.335Z,98.20
2018-04-10T00:15:09.498Z,98.40
2018-04-10T00:17:38.402Z,98.70
2018-04-10T00:20:06.558Z,98.70
2018-04-10T00:22:35.459Z,98.50
2018-04-10T00:25:03.631Z,98.50
2018-04-10T00:27:31.771Z,98.70
2018-04-10T00:29:59.928Z,98.60
2018-04-10T00:32:28.079Z,98.60
2018-04-10T00:34:56.214Z,98.60
2018-04-10T00:37:25.166Z,98.90
2018-04-10T00:39:53.303Z,98.80
2018-04-10T00:42:21.438Z,99.10
2018-04-10T00:44:49.599Z,99.20
2018-04-10T00:47:18.652Z,99.10
2018-04-10T00:49:46.808Z,99.50
2018-04-10T00:52:15.067Z,99.10
2018-04-10T00:54:44.022Z,99.10
2018-04-10T00:57:12.195Z,99.10
2018-04-10T00:59:40.443Z,99.50
2018-04-10T01:02:08.618Z,99.40
2018-04-10T01:04:36.778Z,99.20
2018-04-10T01:07:04.914Z,99.20
2018-04-10T01:09:33.058Z,99.20
2018-04-10T01:12:01.195Z,99.10
2018-04-10T01:14:29.351Z,99.20
2018-04-10T01:16:58.255Z,99.50
2018-04-10T01:19:26.422Z,99.50
2018-04-10T01:21:54.558Z,99.30
2018-04-10T01:24:22.718Z,99.00
2018-04-10T01:26:50.847Z,99.60
2018-04-10T01:29:19.894Z,99.80
2018-04-10T01:31:48.047Z,99.80
2018-04-10T01:34:16.179Z,99.90
2018-04-10T01:36:44.334Z,99.90
2018-04-10T01:39:13.234Z,99.60
2018-04-10T01:41:42.159Z,99.80
2018-04-10T01:44:10.291Z,99.80
2018-04-10T01:46:39.244Z,99.90
2018-04-10T01:49:08.320Z,99.90
2018-04-10T01:51:36.475Z,99.90
2018-04-10T01:54:04.606Z,99.90
2018-04-10T01:56:32.806Z,99.90
2018-04-10T01:59:02.647Z,99.90
2018-04-10T02:01:30.779Z,99.90
2018-04-10T02:03:59.708Z,99.90
2018-04-10T02:06:27.850Z,99.90
2018-04-10T02:08:57.715Z,99.90
2018-04-10T02:11:25.859Z,99.90
2018-04-10T02:13:54.015Z,99.90
2018-04-10T02:16:22.166Z,99.90
2018-04-10T02:18:50.326Z,99.90
2018-04-10T02:21:18.459Z,99.90
2018-04-10T02:23:46.620Z,99.90
2018-04-10T02:26:14.768Z,99.90
2018-04-10T02:28:45.668Z,99.90
2018-04-10T02:31:13.822Z,99.90
2018-04-10T02:33:41.980Z,99.90
2018-04-10T02:36:10.119Z,99.90
2018-04-10T02:38:39.052Z,99.90
2018-04-10T02:41:07.186Z,99.90
2018-04-10T02:43:36.140Z,99.90
2018-04-10T02:46:04.293Z,99.90
2018-04-10T02:48:32.435Z,99.90
2018-04-10T02:51:01.359Z,99.90
2018-04-10T02:53:29.498Z,99.90
2018-04-10T02:55:58.421Z,99.90
2018-04-10T02:58:26.555Z,99.90
2018-04-10T03:00:55.481Z,99.90
2018-04-10T03:03:23.615Z,99.90
2018-04-10T03:05:52.544Z,99.90
2018-04-10T03:08:21.644Z,99.90
2018-04-10T03:10:49.808Z,99.90
2018-04-10T03:13:17.952Z,99.90
2018-04-10T03:15:46.867Z,99.90
2018-04-10T03:18:17.006Z,99.90
2018-04-10T03:20:45.182Z,99.90
2018-04-10T03:23:13.319Z,99.90
2018-04-10T03:25:42.263Z,99.90
2018-04-10T03:28:10.415Z,99.90
2018-04-10T03:30:38.552Z,99.90
2018-04-10T03:33:07.487Z,99.90
2018-04-10T03:35:35.623Z,99.90
2018-04-10T03:38:03.787Z,99.90
2018-04-10T03:40:32.696Z,99.90
2018-04-10T03:43:00.850Z,99.90
2018-04-10T03:45:29.750Z,99.90
2018-04-10T03:48:00.727Z,99.90
2018-04-10T03:50:28.868Z,99.90
2018-04-10T03:52:57.045Z,99.90
2018-04-10T03:55:25.182Z,99.90
2018-04-10T03:57:54.357Z,99.90
2018-04-10T04:00:22.498Z,99.90
2018-04-10T04:02:50.691Z,99.90
2018-04-10T04:05:18.831Z,99.90
2018-04-10T04:07:47.946Z,99.90
2018-04-10T04:10:16.098Z,99.90
2018-04-10T04:12:44.260Z,99.90
2018-04-10T04:15:13.183Z,99.90
2018-04-10T04:17:41.334Z,99.90
2018-04-10T04:20:27.092Z,99.90
2018-04-10T04:22:55.227Z,99.90
2018-04-10T04:25:23.374Z,99.90
2018-04-10T04:27:52.563Z,99.90
2018-04-10T04:30:20.787Z,99.90
2018-04-10T04:32:48.976Z,99.90
2018-04-10T04:35:17.191Z,99.90
2018-04-10T04:37:45.330Z,99.90
2018-04-10T04:40:13.499Z,99.90
2018-04-10T04:42:41.638Z,99.90
2018-04-10T04:45:09.795Z,99.90
2018-04-10T04:47:41.568Z,99.90
2018-04-10T04:50:09.732Z,99.90
2018-04-10T04:52:37.871Z,99.90
2018-04-10T04:55:06.775Z,99.90
2018-04-10T04:57:34.936Z,99.90
2018-04-10T05:00:03.828Z,99.90
2018-04-10T05:02:32.747Z,99.90
2018-04-10T05:05:00.886Z,99.90
2018-04-10T05:07:30.750Z,99.90
2018-04-10T05:09:58.892Z,99.90
2018-04-10T05:12:27.042Z,99.90
2018-04-10T05:14:55.946Z,99.90
2018-04-10T05:17:24.191Z,99.90
2018-04-10T05:19:52.432Z,99.90
2018-04-10T05:22:20.635Z,99.90
2018-04-10T05:24:48.799Z,99.90
2018-04-10T05:27:17.077Z,99.90
2018-04-10T05:29:45.248Z,99.90
2018-04-10T05:32:13.455Z,99.90
2018-04-10T05:34:42.416Z,99.90
2018-04-10T05:37:10.664Z,99.90
2018-04-10T05:39:38.811Z,99.90
2018-04-10T05:42:06.984Z,99.90
2018-04-10T05:44:35.140Z,99.90
2018-04-10T05:47:04.962Z,99.90
2018-04-10T05:49:33.126Z,99.90
2018-04-10T05:52:02.032Z,99.90
2018-04-10T05:54:30.199Z,99.90
2018-04-10T05:56:59.120Z,99.90
2018-04-10T05:59:27.281Z,99.90
2018-04-10T06:01:55.427Z,99.90
2018-04-10T06:04:24.351Z,99.70
2018-04-10T06:06:52.490Z,99.70
2018-04-10T06:09:22.359Z,98.60
2018-04-10T06:11:50.513Z,98.60
2018-04-10T06:14:18.671Z,98.60
2018-04-10T06:16:46.811Z,99.20
2018-04-10T06:19:14.975Z,99.30
2018-04-10T06:21:43.133Z,99.80
2018-04-10T06:24:11.283Z,99.90
2018-04-10T06:26:39.526Z,99.90
2018-04-10T06:29:07.743Z,99.90
2018-04-10T06:31:36.001Z,99.90
2018-04-10T06:34:04.177Z,99.90
2018-04-10T06:36:32.393Z,99.90
2018-04-10T06:39:08.436Z,99.90
2018-04-10T06:41:36.640Z,99.90
2018-04-10T06:44:05.563Z,99.90
2018-04-10T06:46:33.767Z,99.90
2018-04-10T06:49:02.851Z,99.90
2018-04-10T06:51:31.036Z,99.90
2018-04-10T06:53:59.183Z,99.90
2018-04-10T06:56:27.328Z,99.90
2018-04-10T06:58:58.233Z,99.20
2018-04-10T07:01:26.379Z,99.20
2018-04-10T07:03:54.551Z,98.50
2018-04-10T07:06:22.696Z,97.60
2018-04-10T07:08:50.862Z,97.40
2018-04-10T07:11:19.781Z,96.90
2018-04-10T07:13:47.980Z,96.80
2018-04-10T07:16:16.123Z,96.30
2018-04-10T07:18:44.285Z,94.80
2018-04-10T07:21:12.443Z,94.60
2018-04-10T07:23:41.378Z,94.50
2018-04-10T07:26:09.539Z,94.40
2018-04-10T07:28:38.665Z,94.30
2018-04-10T07:31:06.814Z,94.10
2018-04-10T07:33:34.986Z,93.70
2018-04-10T07:36:03.135Z,93.10
2018-04-10T07:38:31.287Z,92.40
2018-04-10T07:41:00.228Z,90.70
2018-04-10T07:43:28.371Z,90.70
2018-04-10T07:45:56.563Z,90.30
2018-04-10T07:48:24.715Z,89.10
2018-04-10T07:50:53.652Z,88.90
2018-04-10T07:53:21.798Z,88.90
2018-04-10T07:55:49.965Z,90.20
2018-04-10T07:58:18.107Z,88.40
2018-04-10T08:00:46.287Z,87.00
2018-04-10T08:03:16.038Z,85.10
2018-04-10T08:05:44.211Z,85.10
2018-04-10T08:08:12.367Z,87.90
2018-04-10T08:10:40.535Z,86.50
2018-04-10T08:13:08.686Z,88.20
2018-04-10T08:15:37.620Z,88.60
2018-04-10T08:18:06.726Z,88.40
2018-04-10T08:20:34.968Z,88.00
2018-04-10T08:23:03.148Z,86.30
2018-04-10T08:25:31.423Z,85.40
2018-04-10T08:27:59.631Z,82.60
2018-04-10T08:30:27.805Z,81.10
2018-04-10T08:32:55.979Z,80.40
2018-04-10T08:35:24.142Z,82.50
2018-04-10T08:37:53.350Z,80.40
2018-04-10T08:40:21.502Z,76.90
2018-04-10T08:42:49.667Z,77.40
2018-04-10T08:45:17.815Z,72.30
2018-04-10T08:47:47.692Z,71.20
2018-04-10T08:50:15.853Z,71.00
2018-04-10T08:52:44.057Z,71.40
2018-04-10T08:55:12.184Z,69.30
2018-04-10T08:57:40.346Z,70.20
2018-04-10T09:00:08.487Z,67.10
2018-04-10T09:02:37.419Z,65.80
2018-04-10T09:05:05.580Z,65.70
2018-04-10T09:07:33.742Z,65.40
2018-04-10T09:10:02.658Z,67.10
2018-04-10T09:12:30.843Z,67.10
2018-04-10T09:14:58.982Z,65.10
2018-04-10T09:17:27.154Z,65.90
2018-04-10T09:19:55.309Z,67.00
2018-04-10T09:22:24.245Z,70.40
2018-04-10T09:24:52.425Z,69.40
2018-04-10T09:27:22.604Z,67.40
2018-04-10T09:29:51.550Z,66.80
2018-04-10T09:32:19.695Z,66.70
2018-04-10T09:34:47.865Z,64.00
2018-04-10T09:37:19.039Z,64.10
2018-04-10T09:39:47.211Z,62.50
2018-04-10T09:42:15.375Z,63.40
2018-04-10T09:44:43.566Z,62.40
2018-04-10T09:47:12.648Z,62.60
2018-04-10T09:49:40.818Z,62.00
2018-04-10T09:52:08.972Z,60.00
2018-04-10T09:54:37.149Z,58.60
2018-04-10T09:57:05.299Z,58.70
2018-04-10T09:59:33.475Z,58.90
2018-04-10T10:02:02.419Z,55.20
2018-04-10T10:04:30.574Z,55.10
2018-04-10T10:06:58.724Z,55.10
2018-04-10T10:09:26.894Z,55.40
2018-04-10T10:11:55.039Z,54.20
2018-04-10T10:14:23.185Z,54.40
2018-04-10T10:16:51.356Z,55.00
2018-04-10T10:19:20.460Z,53.10
2018-04-10T10:21:48.659Z,52.70
2018-04-10T10:24:17.583Z,51.80
2018-04-10T10:26:45.747Z,51.80
2018-04-10T10:29:13.899Z,52.20
2018-04-10T10:31:42.833Z,49.50
2018-04-10T10:34:10.974Z,49.40
2018-04-10T10:36:39.907Z,48.40
2018-04-10T10:39:09.093Z,48.30
2018-04-10T10:41:37.243Z,49.50
2018-04-10T10:44:05.390Z,47.70
2018-04-10T10:46:35.163Z,46.80
2018-04-10T10:49:06.908Z,46.80
2018-04-10T10:51:35.076Z,47.80
2018-04-10T10:54:03.239Z,48.00
2018-04-10T10:56:31.418Z,47.90
2018-04-10T10:58:59.563Z,47.80
2018-04-10T11:01:28.494Z,47.90
2018-04-10T11:03:56.656Z,47.80
2018-04-10T11:06:24.851Z,47.90
2018-04-10T11:08:54.975Z,48.50
2018-04-10T11:11:23.153Z,46.10
2018-04-10T11:13:51.307Z,47.10
2018-04-10T11:16:19.483Z,46.00
2018-04-10T11:18:47.641Z,47.10
2018-04-10T11:21:15.790Z,45.50
2018-04-10T11:23:44.720Z,45.20
2018-04-10T11:26:12.868Z,45.20
2018-04-10T11:28:41.035Z,45.10
2018-04-10T11:31:09.955Z,44.60
2018-04-10T11:33:38.125Z,44.60
2018-04-10T11:36:06.279Z,43.30
2018-04-10T11:38:34.443Z,42.40
2018-04-10T11:41:03.351Z,40.90
2018-04-10T11:43:31.536Z,41.00
2018-04-10T11:45:59.678Z,41.20
2018-04-10T11:48:29.550Z,40.70
2018-04-10T11:50:57.702Z,40.60
2018-04-10T11:53:25.879Z,39.60
2018-04-10T11:55:54.023Z,40.50
2018-04-10T11:58:23.163Z,40.90
2018-04-10T12:00:51.311Z,40.40
2018-04-10T12:03:19.474Z,39.70
2018-04-10T12:05:47.659Z,39.00
2018-04-10T12:08:15.836Z,37.60
2018-04-10T12:10:44.013Z,36.60
2018-04-10T12:13:12.187Z,38.20
2018-04-10T12:15:40.335Z,38.80
2018-04-10T12:18:09.303Z,38.70
2018-04-10T12:20:39.419Z,38.70
2018-04-10T12:23:07.649Z,40.00
2018-04-10T12:25:35.796Z,37.80
2018-04-10T12:28:04.751Z,38.80
2018-04-10T12:30:33.012Z,38.80
2018-04-10T12:33:01.262Z,38.60
2018-04-10T12:35:29.660Z,36.90
2018-04-10T12:38:29.428Z,37.80
2018-04-10T12:40:58.452Z,34.10
2018-04-10T12:43:26.684Z,34.10
2018-04-10T12:45:54.965Z,34.50
2018-04-10T12:48:30.304Z,32.70
2018-04-10T12:50:58.536Z,33.20
2018-04-10T12:53:26.818Z,32.60
2018-04-10T12:55:55.084Z,32.60
2018-04-10T12:58:25.273Z,32.50
2018-04-10T13:00:54.449Z,30.60
2018-04-10T13:03:22.691Z,30.70
2018-04-10T13:05:50.943Z,32.30
2018-04-10T13:08:20.072Z,32.80
2018-04-10T13:10:48.290Z,34.00
2018-04-10T13:13:17.309Z,32.70
2018-04-10T13:15:45.546Z,32.80
2018-04-10T13:18:15.462Z,33.60
2018-04-10T13:20:44.483Z,33.80
2018-04-10T13:23:12.688Z,33.80
2018-04-10T13:25:40.950Z,33.60
2018-04-10T13:28:13.752Z,34.90
2018-04-10T13:30:41.966Z,33.60
2018-04-10T13:33:11.001Z,34.10
2018-04-10T13:35:39.227Z,34.00
2018-04-10T13:38:09.218Z,32.60
2018-04-10T13:40:37.468Z,32.60
2018-04-10T13:43:05.728Z,30.30
2018-04-10T13:45:33.945Z,31.00
2018-04-10T13:48:03.101Z,30.00
2018-04-10T13:50:31.285Z,30.90
2018-04-10T13:52:59.476Z,29.50
2018-04-10T13:55:27.617Z,30.20
2018-04-10T13:58:00.544Z,31.40
2018-04-10T14:00:28.684Z,31.30
2018-04-10T14:05:31.232Z,32.60
2018-04-10T14:08:00.416Z,31.80
2018-04-10T14:10:28.572Z,32.50
2018-04-10T14:12:56.740Z,34.20
2018-04-10T14:15:24.883Z,35.00
2018-04-10T14:17:53.048Z,36.80
2018-04-10T14:20:22.335Z,35.80
2018-04-10T14:22:51.265Z,37.40
2018-04-10T14:25:19.419Z,37.40
2018-04-10T14:27:47.596Z,39.70
2018-04-10T14:30:15.755Z,37.40
2018-04-10T14:32:44.680Z,38.40
2018-04-10T14:35:12.824Z,38.40
2018-04-10T14:37:42.175Z,40.10
2018-04-10T14:40:10.380Z,40.60
2018-04-10T14:42:39.370Z,41.20
2018-04-10T14:45:07.652Z,41.20
2018-04-10T14:47:37.523Z,42.00
2018-04-10T14:50:05.771Z,41.90
2018-04-10T14:52:33.968Z,44.50
2018-04-10T14:55:02.205Z,44.30
2018-04-10T14:57:31.452Z,44.90
2018-04-10T14:59:59.676Z,54.50
2018-04-10T15:02:27.874Z,45.50
2018-04-10T15:04:56.139Z,46.30
2018-04-10T15:07:26.496Z,45.00
2018-04-10T15:09:54.760Z,45.50
2018-04-10T15:12:23.014Z,45.00
2018-04-10T15:14:51.302Z,44.80
2018-04-10T15:17:20.456Z,44.60
2018-04-10T15:19:49.500Z,43.80
2018-04-10T15:22:17.708Z,43.80
2018-04-10T15:24:45.932Z,43.70
2018-04-10T15:27:15.164Z,43.30
2018-04-10T15:29:43.413Z,43.00
2018-04-10T15:32:11.681Z,42.20
2018-04-10T15:34:39.868Z,42.10
2018-04-10T15:37:09.068Z,42.80
2018-04-10T15:39:37.400Z,42.90
2018-04-10T15:42:06.453Z,46.90
2018-04-10T15:44:34.688Z,46.90
2018-04-10T15:47:03.036Z,47.70
2018-04-10T15:49:31.216Z,47.10
2018-04-10T15:52:00.228Z,43.70
2018-04-10T15:54:28.435Z,43.70
2018-04-10T15:57:04.416Z,45.20
2018-04-10T15:59:32.559Z,46.90
2018-04-10T16:02:00.747Z,47.60
2018-04-10T16:04:28.953Z,48.60
2018-04-10T16:06:58.215Z,49.00
2018-04-10T16:09:26.411Z,50.10
2018-04-10T16:11:54.640Z,51.90
2018-04-10T16:14:22.819Z,52.20
2018-04-10T16:16:52.048Z,53.10
2018-04-10T16:19:20.318Z,53.60
2018-04-10T16:21:48.581Z,52.80
2018-04-10T16:24:16.795Z,54.10
2018-04-10T16:26:46.072Z,54.40
2018-04-10T16:29:14.271Z,55.20
2018-04-10T16:31:42.528Z,55.80
2018-04-10T16:34:10.701Z,56.70
2018-04-10T16:36:38.915Z,56.80
2018-04-10T16:39:08.008Z,52.80
2018-04-10T16:41:37.052Z,52.80
2018-04-10T16:44:05.292Z,52.60
2018-04-10T16:46:34.476Z,53.10
2018-04-10T16:49:03.420Z,52.90
2018-04-10T16:51:31.592Z,52.90
2018-04-10T16:53:59.836Z,53.10
2018-04-10T16:56:28.012Z,54.20
2018-04-10T16:58:56.304Z,54.20
2018-04-10T17:01:24.499Z,53.60
2018-04-10T17:03:52.688Z,52.60
2018-04-10T17:06:21.973Z,52.70
2018-04-10T17:08:50.201Z,53.60
2018-04-10T17:11:18.399Z,54.00
2018-04-10T17:13:46.640Z,53.70
2018-04-10T17:16:15.672Z,55.10
2018-04-10T17:18:43.918Z,55.10
2018-04-10T17:21:12.093Z,56.70
2018-04-10T17:23:40.385Z,56.50
2018-04-10T17:26:08.561Z,55.50
2018-04-10T17:28:36.829Z,55.70
2018-04-10T17:31:05.036Z,55.70
2018-04-10T17:33:33.285Z,56.00
2018-04-10T17:36:01.540Z,56.40
2018-04-10T17:38:30.732Z,56.90
2018-04-10T17:40:59.732Z,56.90
2018-04-10T17:43:27.951Z,56.90
2018-04-10T17:45:56.184Z,57.30
2018-04-10T17:48:24.373Z,57.80
2018-04-10T17:50:52.657Z,58.30
2018-04-10T17:53:20.840Z,58.70
2018-04-10T17:55:49.096Z,59.60
2018-04-10T17:58:20.279Z,60.50
2018-04-10T18:00:48.538Z,61.20
2018-04-10T18:03:16.785Z,62.00
2018-04-10T18:05:45.013Z,62.20
2018-04-10T18:08:27.769Z,63.50
2018-04-10T18:10:56.000Z,63.50
2018-04-10T18:13:24.180Z,64.30
2018-04-10T18:15:52.428Z,64.40
2018-04-10T18:18:20.675Z,65.10
2018-04-10T18:20:54.796Z,66.20
2018-04-10T18:23:23.011Z,66.50
2018-04-10T18:25:51.269Z,85.30
2018-04-10T18:28:21.315Z,68.30
2018-04-10T18:30:49.540Z,69.30
2018-04-10T18:33:17.757Z,70.20
2018-04-10T18:35:45.999Z,70.70
2018-04-10T18:38:15.134Z,71.50
2018-04-10T18:40:43.377Z,73.00
2018-04-10T18:43:11.581Z,73.90
2018-04-10T18:45:39.784Z,74.50
2018-04-10T18:48:08.041Z,75.00
2018-04-10T18:50:37.064Z,76.10
2018-04-10T18:53:05.358Z,76.10
2018-04-10T18:55:33.577Z,76.80
2018-04-10T18:58:01.834Z,77.80
2018-04-10T19:00:30.008Z,78.40
2018-04-10T19:02:58.241Z,79.10
2018-04-10T19:05:26.435Z,79.70
2018-04-10T19:07:59.325Z,80.00
2018-04-10T19:10:27.532Z,81.00
2018-04-10T19:12:55.801Z,83.00
2018-04-10T19:15:23.997Z,84.50
2018-04-10T19:17:53.957Z,88.40
2018-04-10T19:20:22.160Z,88.40
2018-04-10T19:22:50.352Z,87.90
2018-04-10T19:25:18.514Z,88.20
2018-04-10T19:27:56.307Z,88.20
2018-04-10T19:30:24.476Z,89.10
2018-04-10T19:32:52.728Z,89.40
2018-04-10T19:35:20.937Z,90.20
2018-04-10T19:37:53.358Z,91.10
2018-04-10T19:40:21.556Z,90.80
2018-04-10T19:42:49.817Z,90.60
2018-04-10T19:45:19.116Z,90.00
2018-04-10T19:47:49.348Z,90.30
2018-04-10T19:50:17.549Z,89.00
2018-04-10T19:52:45.777Z,89.80
2018-04-10T19:55:13.935Z,89.10
2018-04-10T19:57:43.140Z,90.10
2018-04-10T20:00:11.390Z,90.40
2018-04-10T20:02:40.408Z,90.70
2018-04-10T20:05:08.651Z,90.60
2018-04-10T20:07:38.793Z,90.20
2018-04-10T20:10:07.824Z,90.60
2018-04-10T20:12:36.028Z,90.50
2018-04-10T20:15:04.299Z,90.50
2018-04-10T20:17:33.448Z,90.60
2018-04-10T20:20:01.700Z,90.70
2018-04-10T20:22:30.647Z,90.90
2018-04-10T20:24:58.907Z,90.90
2018-04-10T20:27:28.088Z,91.00
2018-04-10T20:29:56.305Z,91.20
2018-04-10T20:32:25.388Z,91.50
2018-04-10T20:34:53.631Z,91.60
2018-04-10T20:37:26.689Z,91.70
2018-04-10T20:39:55.679Z,92.00
2018-04-10T20:42:23.905Z,92.00
2018-04-10T20:44:52.130Z,92.60
2018-04-10T20:47:20.320Z,92.80
2018-04-10T20:49:48.573Z,93.00
2018-04-10T20:52:17.530Z,93.90
2018-04-10T20:54:45.757Z,93.90
2018-04-10T20:57:16.716Z,94.40
2018-04-10T20:59:44.963Z,94.70
2018-04-10T21:02:13.936Z,94.30
2018-04-10T21:04:42.187Z,94.30
2018-04-10T21:07:24.967Z,94.40
2018-04-10T21:09:53.132Z,94.20
2018-04-10T21:12:22.044Z,94.40
2018-04-10T21:14:50.222Z,94.40
2018-04-10T21:17:18.363Z,94.40
2018-04-10T21:19:47.289Z,94.50
2018-04-10T21:22:15.436Z,94.50
2018-04-10T21:24:44.363Z,94.90
2018-04-10T21:27:20.628Z,94.80
2018-04-10T21:29:48.796Z,94.80
2018-04-10T21:32:16.939Z,94.80
2018-04-10T21:34:45.870Z,94.80
2018-04-10T21:37:14.964Z,94.80
2018-04-10T21:39:43.124Z,94.90
2018-04-10T21:42:11.273Z,95.10
2018-04-10T21:44:39.453Z,95.00
2018-04-10T21:47:12.476Z,94.90
2018-04-10T21:49:40.615Z,94.90
2018-04-10T21:52:08.796Z,94.70
2018-04-10T21:54:36.947Z,94.70
2018-04-10T21:57:07.944Z,94.00
2018-04-10T21:59:36.079Z,94.00
2018-04-10T22:02:04.241Z,93.90
2018-04-10T22:04:32.391Z,93.50
2018-04-10T22:07:01.555Z,93.40
2018-04-10T22:09:29.699Z,96.60
2018-04-10T22:11:57.856Z,93.10
2018-04-10T22:14:26.008Z,93.00
2018-04-10T22:17:00.392Z,93.20
2018-04-10T22:19:28.539Z,93.20
2018-04-10T22:21:56.704Z,93.70
2018-04-10T22:24:24.855Z,94.00
2018-04-10T22:26:54.732Z,94.60
2018-04-10T22:29:22.876Z,94.60
2018-04-10T22:31:51.149Z,94.60
2018-04-10T22:34:19.394Z,94.90
2018-04-10T22:36:48.609Z,95.20
2018-04-10T22:39:16.817Z,94.90
2018-04-10T22:41:45.075Z,95.30
2018-04-10T22:44:13.292Z,95.20
2018-04-10T22:46:41.508Z,95.20
2018-04-10T22:49:09.780Z,95.10
2018-04-10T22:51:37.973Z,95.20
2018-04-10T22:54:06.225Z,95.20
2018-04-10T22:56:35.373Z,95.00
2018-04-10T22:59:04.341Z,95.10
2018-04-10T23:01:32.552Z,95.00
2018-04-10T23:04:01.532Z,95.20
2018-04-10T23:06:33.997Z,95.30
2018-04-10T23:09:02.254Z,95.30
2018-04-10T23:11:30.480Z,95.70
2018-04-10T23:13:59.456Z,95.70
2018-04-10T23:16:27.705Z,95.70
2018-04-10T23:18:55.954Z,96.00
2018-04-10T23:21:24.172Z,95.60
2018-04-10T23:23:52.381Z,95.60
2018-04-10T23:26:21.358Z,95.40
2018-04-10T23:28:49.577Z,95.40
2018-04-10T23:31:17.844Z,95.10
2018-04-10T23:33:46.044Z,94.90
2018-04-10T23:36:16.292Z,95.10
2018-04-10T23:38:44.538Z,95.80
2018-04-10T23:41:12.724Z,96.30
2018-04-10T23:43:40.901Z,97.30
2018-04-10T23:46:10.069Z,96.60
2018-04-10T23:48:38.274Z,97.80
2018-04-10T23:51:06.520Z,98.00
2018-04-10T23:53:34.720Z,98.20
2018-04-10T23:56:02.999Z,98.60
2018-04-10T23:58:31.260Z,98.60
